Time;durP1;ratioP1;P1;durP2;ratioP2;P2;SDS_P1;SDS_P2;PMS_P1;PMS_P2;Temp;Humidity;BMP_temperature;BMP_pressure;BME280_temperature;BME280_humidity;BME280_pressure;Samples;Min_cycle;Max_cycle;Signal;HPM_P1;HPM_P2
2023/04/18 00:02:00;;;;;;;;;60.00;49.75;;;;;-147.17;100.00;-15917.19;5021777;28;51075;-57
2023/04/18 00:04:26;;;;;;;;;55.75;46.25;;;;;-147.17;100.00;-15917.19;5026823;28;51265;-56
2023/04/18 00:06:51;;;;;;;;;67.25;52.00;;;;;-147.17;100.00;-15917.19;5022917;28;51253;-56
2023/04/18 00:09:16;;;;;;;;;65.25;49.25;;;;;-147.17;100.00;-15917.19;5020059;28;52249;-55
2023/04/18 00:11:42;;;;;;;;;60.75;49.25;;;;;-147.17;100.00;-15917.19;5022835;28;51266;-56
2023/04/18 00:14:09;;;;;;;;;64.50;52.00;;;;;-147.17;100.00;-15917.19;5026616;28;51271;-57
2023/04/18 00:16:35;;;;;;;;;65.25;51.75;;;;;-147.17;100.00;-15917.19;5014532;28;51320;-57
2023/04/18 00:19:01;;;;;;;;;65.00;53.00;;;;;-147.17;100.00;-15917.19;5004877;28;53909;-58
2023/04/18 00:21:26;;;;;;;;;62.25;49.75;;;;;-147.17;100.00;-15917.19;5026440;28;51779;-56
2023/04/18 00:23:52;;;;;;;;;63.25;50.50;;;;;-147.17;100.00;-15917.19;5023119;28;50986;-58
2023/04/18 00:26:17;;;;;;;;;63.75;50.00;;;;;-147.17;100.00;-15917.19;5018406;28;51442;-58
2023/04/18 00:28:42;;;;;;;;;69.50;54.25;;;;;-147.17;100.00;-15917.19;5016610;28;52001;-57
2023/04/18 00:31:08;;;;;;;;;65.50;50.75;;;;;-147.17;100.00;-15917.19;5032925;28;51066;-56
2023/04/18 00:33:33;;;;;;;;;63.25;50.25;;;;;-147.17;100.00;-15917.19;5022912;28;51580;-56
2023/04/18 00:35:58;;;;;;;;;70.25;54.75;;;;;-147.17;100.00;-15917.19;5006687;28;51380;-58
2023/04/18 00:38:24;;;;;;;;;70.00;54.25;;;;;-147.17;100.00;-15917.19;5013618;28;52165;-57
2023/04/18 00:40:49;;;;;;;;;66.25;51.75;;;;;-147.17;100.00;-15917.19;5032416;28;52745;-57
2023/04/18 00:43:15;;;;;;;;;66.00;52.50;;;;;-147.17;100.00;-15917.19;5019514;28;51160;-57
2023/04/18 00:45:41;;;;;;;;;66.75;53.50;;;;;-147.17;100.00;-15917.19;5022841;28;51442;-55
2023/04/18 00:48:06;;;;;;;;;67.25;52.25;;;;;-147.17;100.00;-15917.19;5025957;28;52196;-58
2023/04/18 00:50:32;;;;;;;;;68.00;53.25;;;;;-147.17;100.00;-15917.19;5030072;28;51276;-56
2023/04/18 00:52:57;;;;;;;;;67.50;53.75;;;;;-147.17;100.00;-15917.19;5017581;28;51221;-56
2023/04/18 00:55:23;;;;;;;;;63.50;51.50;;;;;-147.17;100.00;-15917.19;5031574;28;51015;-59
2023/04/18 00:57:49;;;;;;;;;69.00;55.75;;;;;-147.17;100.00;-15917.19;5032217;28;51965;-58
2023/04/18 01:00:15;;;;;;;;;71.00;56.50;;;;;-147.17;100.00;-15917.19;5031185;28;50996;-57
2023/04/18 01:02:40;;;;;;;;;68.75;54.75;;;;;-147.17;100.00;-15917.19;5016570;28;51263;-56
2023/04/18 01:05:06;;;;;;;;;70.75;55.75;;;;;-147.17;100.00;-15917.19;5022711;28;51317;-55
2023/04/18 01:07:34;;;;;;;;;63.75;51.25;;;;;-147.17;100.00;-15917.19;5012772;28;51098;-57
2023/04/18 01:10:00;;;;;;;;;69.75;55.50;;;;;-147.17;100.00;-15917.19;5025256;28;51338;-57
2023/04/18 01:12:26;;;;;;;;;69.25;54.00;;;;;-147.17;100.00;-15917.19;5004959;28;51256;-56
2023/04/18 01:14:51;;;;;;;;;65.75;53.25;;;;;-147.17;100.00;-15917.19;5029657;28;51107;-57
2023/04/18 01:17:18;;;;;;;;;69.50;54.75;;;;;-147.17;100.00;-15917.19;5032379;28;52159;-58
2023/04/18 01:19:45;;;;;;;;;69.25;55.75;;;;;-147.17;100.00;-15917.19;5018108;28;51432;-57
2023/04/18 01:22:12;;;;;;;;;67.25;54.50;;;;;-147.17;100.00;-15917.19;5031481;28;51152;-57
2023/04/18 01:24:41;;;;;;;;;68.50;54.25;;;;;-147.17;100.00;-15917.19;5022158;28;51368;-58
2023/04/18 01:27:06;;;;;;;;;75.25;58.50;;;;;-147.17;100.00;-15917.19;5018580;28;51308;-56
2023/04/18 01:29:31;;;;;;;;;73.75;56.75;;;;;-147.17;100.00;-15917.19;5031552;28;50937;-58
2023/04/18 01:31:57;;;;;;;;;69.00;53.25;;;;;-147.17;100.00;-15917.19;5015579;28;51604;-56
2023/04/18 01:34:22;;;;;;;;;71.75;56.75;;;;;-147.17;100.00;-15917.19;5014968;28;50954;-57
2023/04/18 01:36:48;;;;;;;;;69.50;56.00;;;;;-147.17;100.00;-15917.19;5016665;28;51273;-57
2023/04/18 01:39:13;;;;;;;;;71.00;55.75;;;;;-147.17;100.00;-15917.19;5031906;28;51052;-57
2023/04/18 01:41:41;;;;;;;;;71.00;55.75;;;;;-147.17;100.00;-15917.19;5004057;28;51003;-56
2023/04/18 01:44:06;;;;;;;;;67.75;54.25;;;;;-147.17;100.00;-15917.19;5028053;28;51402;-57
2023/04/18 01:46:31;;;;;;;;;69.50;56.00;;;;;-147.17;100.00;-15917.19;5031719;28;51153;-56
2023/04/18 01:48:58;;;;;;;;;70.50;57.00;;;;;-147.17;100.00;-15917.19;5031446;28;50900;-57
2023/04/18 01:51:23;;;;;;;;;68.25;54.25;;;;;-147.17;100.00;-15917.19;5027116;28;51220;-56
2023/04/18 01:53:49;;;;;;;;;67.50;53.00;;;;;-147.17;100.00;-15917.19;5001519;28;51158;-56
2023/04/18 01:56:14;;;;;;;;;69.50;55.00;;;;;-147.17;100.00;-15917.19;5032099;28;51945;-57
2023/04/18 01:58:40;;;;;;;;;70.00;56.00;;;;;-147.17;100.00;-15917.19;5031334;28;51099;-56
2023/04/18 02:01:05;;;;;;;;;72.75;57.00;;;;;-147.17;100.00;-15917.19;5023769;28;50943;-58
2023/04/18 02:03:31;;;;;;;;;76.00;57.75;;;;;-147.17;100.00;-15917.19;5013368;28;51218;-57
2023/04/18 02:05:56;;;;;;;;;68.75;55.75;;;;;-147.17;100.00;-15917.19;5028680;28;54180;-56
2023/04/18 02:08:21;;;;;;;;;66.00;54.00;;;;;-147.17;100.00;-15917.19;5028249;28;51217;-56
2023/04/18 02:10:47;;;;;;;;;71.00;56.00;;;;;-147.17;100.00;-15917.19;5019541;28;51471;-56
2023/04/18 02:13:14;;;;;;;;;71.50;56.75;;;;;-147.17;100.00;-15917.19;5012780;28;50990;-56
2023/04/18 02:15:39;;;;;;;;;73.25;57.00;;;;;-147.17;100.00;-15917.19;5024619;28;51195;-56
2023/04/18 02:18:05;;;;;;;;;71.75;56.75;;;;;-147.17;100.00;-15917.19;5013566;28;51045;-55
2023/04/18 02:20:32;;;;;;;;;65.25;52.00;;;;;-147.17;100.00;-15917.19;5011129;28;51163;-55
2023/04/18 02:22:59;;;;;;;;;71.50;55.50;;;;;-147.17;100.00;-15917.19;5027566;28;51550;-57
2023/04/18 02:25:27;;;;;;;;;71.75;56.75;;;;;-147.17;100.00;-15917.19;5007389;28;52519;-57
2023/04/18 02:27:53;;;;;;;;;72.00;57.00;;;;;-147.17;100.00;-15917.19;4994544;28;51077;-55
2023/04/18 02:30:19;;;;;;;;;74.00;57.00;;;;;-147.17;100.00;-15917.19;4994996;28;51007;-58
2023/04/18 02:32:44;;;;;;;;;74.00;56.75;;;;;-147.17;100.00;-15917.19;5004581;28;51346;-56
2023/04/18 02:35:11;;;;;;;;;72.25;57.50;;;;;-147.17;100.00;-15917.19;5029628;28;51080;-57
2023/04/18 02:37:37;;;;;;;;;70.75;54.25;;;;;-147.17;100.00;-15917.19;5019472;28;51170;-57
2023/04/18 02:40:03;;;;;;;;;68.25;54.25;;;;;-147.17;100.00;-15917.19;5031020;28;51133;-56
2023/04/18 02:42:29;;;;;;;;;74.25;57.00;;;;;-147.17;100.00;-15917.19;5005801;28;52424;-55
2023/04/18 02:44:54;;;;;;;;;68.25;54.75;;;;;-147.17;100.00;-15917.19;5015472;28;51781;-55
2023/04/18 02:47:20;;;;;;;;;75.75;56.00;;;;;-147.17;100.00;-15917.19;5001305;28;51023;-57
2023/04/18 02:49:45;;;;;;;;;69.50;54.00;;;;;-147.17;100.00;-15917.19;5028027;28;51056;-56
2023/04/18 02:52:11;;;;;;;;;73.50;57.00;;;;;-147.17;100.00;-15917.19;5023386;28;50971;-56
2023/04/18 02:54:36;;;;;;;;;70.00;55.25;;;;;-147.17;100.00;-15917.19;5018724;28;52472;-55
2023/04/18 02:57:02;;;;;;;;;74.00;56.75;;;;;-147.17;100.00;-15917.19;5029419;28;51080;-55
2023/04/18 02:59:27;;;;;;;;;45.75;38.75;;;;;-147.17;100.00;-15917.19;5000655;28;51196;-55
2023/04/18 03:01:53;;;;;;;;;70.50;57.00;;;;;-147.17;100.00;-15917.19;5024564;28;51251;-56
2023/04/18 03:04:18;;;;;;;;;72.25;57.50;;;;;-147.17;100.00;-15917.19;5032819;28;56015;-57
2023/04/18 03:06:43;;;;;;;;;73.75;57.50;;;;;-147.17;100.00;-15917.19;5000693;28;51080;-56
2023/04/18 03:09:09;;;;;;;;;69.50;51.75;;;;;-147.17;100.00;-15917.19;5027947;28;51189;-56
2023/04/18 03:11:34;;;;;;;;;74.25;57.75;;;;;-147.17;100.00;-15917.19;5034451;28;51347;-54
2023/04/18 03:13:59;;;;;;;;;66.50;52.00;;;;;-147.17;100.00;-15917.19;5021998;28;51632;-56
2023/04/18 03:16:25;;;;;;;;;75.25;58.00;;;;;-147.17;100.00;-15917.19;5034091;28;50969;-57
2023/04/18 03:18:50;;;;;;;;;73.50;56.00;;;;;-147.17;100.00;-15917.19;5016198;28;51223;-57
2023/04/18 03:21:16;;;;;;;;;74.50;58.25;;;;;-147.17;100.00;-15917.19;5015943;28;51070;-57
2023/04/18 03:23:41;;;;;;;;;70.50;54.50;;;;;-147.17;100.00;-15917.19;5027154;28;51058;-57
2023/04/18 03:26:07;;;;;;;;;71.00;54.25;;;;;-147.17;100.00;-15917.19;5015127;28;51100;-58
2023/04/18 03:28:33;;;;;;;;;75.50;58.00;;;;;-147.17;100.00;-15917.19;5032593;28;51004;-55
2023/04/18 03:30:58;;;;;;;;;70.00;57.50;;;;;-147.17;100.00;-15917.19;5025092;28;51205;-55
2023/04/18 03:33:24;;;;;;;;;73.50;55.50;;;;;-147.17;100.00;-15917.19;5022721;28;51126;-56
2023/04/18 03:35:49;;;;;;;;;75.25;58.25;;;;;-147.17;100.00;-15917.19;5034417;28;51184;-55
2023/04/18 03:38:15;;;;;;;;;71.25;57.00;;;;;-147.17;100.00;-15917.19;5033860;28;51065;-58
2023/04/18 03:40:42;;;;;;;;;73.25;57.00;;;;;-147.17;100.00;-15917.19;5016393;28;51049;-56
2023/04/18 03:43:07;;;;;;;;;67.25;53.75;;;;;-147.17;100.00;-15917.19;5016693;28;52295;-56
2023/04/18 03:45:33;;;;;;;;;71.75;56.75;;;;;-147.17;100.00;-15917.19;5034088;28;51109;-56
2023/04/18 03:47:58;;;;;;;;;71.00;56.00;;;;;-147.17;100.00;-15917.19;5033455;28;51233;-56
2023/04/18 03:50:24;;;;;;;;;71.25;56.50;;;;;-147.17;100.00;-15917.19;5034207;28;51294;-54
2023/04/18 03:52:51;;;;;;;;;72.75;58.00;;;;;-147.17;100.00;-15917.19;5033345;28;51333;-56
2023/04/18 03:55:17;;;;;;;;;73.00;58.75;;;;;-147.17;100.00;-15917.19;5027379;28;50969;-56
2023/04/18 03:57:42;;;;;;;;;67.75;52.75;;;;;-147.17;100.00;-15917.19;5017370;28;51090;-55
2023/04/18 04:00:09;;;;;;;;;73.25;55.50;;;;;-147.17;100.00;-15917.19;5031893;28;51022;-58
2023/04/18 04:02:34;;;;;;;;;72.50;57.50;;;;;-147.17;100.00;-15917.19;5026020;28;51988;-56
2023/04/18 04:05:01;;;;;;;;;73.75;57.50;;;;;-147.17;100.00;-15917.19;5021369;28;51119;-56
2023/04/18 04:07:26;;;;;;;;;67.50;52.50;;;;;-147.17;100.00;-15917.19;5020119;28;51366;-56
2023/04/18 04:09:52;;;;;;;;;77.75;60.00;;;;;-147.17;100.00;-15917.19;5026819;28;51120;-57
2023/04/18 04:12:17;;;;;;;;;77.50;59.25;;;;;-147.17;100.00;-15917.19;5026873;28;51966;-56
2023/04/18 04:14:42;;;;;;;;;71.75;56.50;;;;;-147.17;100.00;-15917.19;5033554;28;51073;-56
2023/04/18 04:17:08;;;;;;;;;74.25;57.75;;;;;-147.17;100.00;-15917.19;5015543;28;51068;-57
2023/04/18 04:19:33;;;;;;;;;72.50;57.25;;;;;-147.17;100.00;-15917.19;5010701;28;51339;-58
2023/04/18 04:21:58;;;;;;;;;71.25;55.50;;;;;-147.17;100.00;-15917.19;5023425;28;51378;-55
2023/04/18 04:24:24;;;;;;;;;72.25;57.50;;;;;-147.17;100.00;-15917.19;5026080;28;51287;-55
2023/04/18 04:26:49;;;;;;;;;69.75;54.25;;;;;-147.17;100.00;-15917.19;5031956;28;51498;-56
2023/04/18 04:29:15;;;;;;;;;75.50;56.50;;;;;-147.17;100.00;-15917.19;5033504;28;51205;-57
2023/04/18 04:31:40;;;;;;;;;76.75;58.25;;;;;-147.17;100.00;-15917.19;5023079;28;51852;-56
2023/04/18 04:34:05;;;;;;;;;71.25;55.75;;;;;-147.17;100.00;-15917.19;5021176;28;51045;-56
2023/04/18 04:36:32;;;;;;;;;73.75;58.75;;;;;-147.17;100.00;-15917.19;5025450;28;51162;-56
2023/04/18 04:38:57;;;;;;;;;75.25;57.75;;;;;-147.17;100.00;-15917.19;5033439;28;51069;-55
2023/04/18 04:41:24;;;;;;;;;73.75;58.00;;;;;-147.17;100.00;-15917.19;5012691;28;53303;-57
2023/04/18 04:43:50;;;;;;;;;71.50;57.50;;;;;-147.17;100.00;-15917.19;5017595;28;51035;-56
2023/04/18 04:46:18;;;;;;;;;74.50;55.50;;;;;-147.17;100.00;-15917.19;5026688;28;51180;-56
2023/04/18 04:48:44;;;;;;;;;67.75;55.50;;;;;-147.17;100.00;-15917.19;5034151;28;51208;-58
2023/04/18 04:51:09;;;;;;;;;71.50;57.00;;;;;-147.17;100.00;-15917.19;5031138;28;52957;-59
2023/04/18 04:53:34;;;;;;;;;75.25;60.00;;;;;-147.17;100.00;-15917.19;5019890;28;51148;-55
2023/04/18 04:56:00;;;;;;;;;78.00;59.00;;;;;-147.17;100.00;-15917.19;5019149;28;51426;-56
2023/04/18 04:58:25;;;;;;;;;77.50;61.00;;;;;-147.17;100.00;-15917.19;5028693;28;50947;-58
2023/04/18 05:00:51;;;;;;;;;71.00;54.75;;;;;-147.17;100.00;-15917.19;5030850;28;52093;-56
2023/04/18 05:03:17;;;;;;;;;73.00;60.00;;;;;-147.17;100.00;-15917.19;5023866;28;51116;-56
2023/04/18 05:05:43;;;;;;;;;72.50;57.00;;;;;-147.17;100.00;-15917.19;5033076;28;51102;-56
2023/04/18 05:08:08;;;;;;;;;75.50;58.75;;;;;-147.17;100.00;-15917.19;5034197;28;50962;-55
2023/04/18 05:10:35;;;;;;;;;74.75;57.50;;;;;-147.17;100.00;-15917.19;5031328;28;52406;-56
2023/04/18 05:13:02;;;;;;;;;74.75;59.75;;;;;-147.17;100.00;-15917.19;5025146;28;51215;-57
2023/04/18 05:15:28;;;;;;;;;70.25;56.50;;;;;-147.17;100.00;-15917.19;5013087;28;51487;-56
2023/04/18 05:17:53;;;;;;;;;72.00;58.00;;;;;-147.17;100.00;-15917.19;5029355;28;51183;-56
2023/04/18 05:20:19;;;;;;;;;77.50;60.50;;;;;-147.17;100.00;-15917.19;5030133;28;52202;-57
2023/04/18 05:22:44;;;;;;;;;72.75;58.25;;;;;-147.17;100.00;-15917.19;5027043;28;51119;-58
2023/04/18 05:25:11;;;;;;;;;72.25;56.25;;;;;-147.17;100.00;-15917.19;5009299;28;51159;-57
2023/04/18 05:27:36;;;;;;;;;75.75;60.00;;;;;-147.17;100.00;-15917.19;5026197;28;51418;-56
2023/04/18 05:30:01;;;;;;;;;72.00;56.50;;;;;-147.17;100.00;-15917.19;5032098;28;50948;-57
2023/04/18 05:32:27;;;;;;;;;76.50;60.00;;;;;-147.17;100.00;-15917.19;5027237;28;50962;-57
2023/04/18 05:34:53;;;;;;;;;73.25;58.00;;;;;-147.17;100.00;-15917.19;5026283;28;51124;-57
2023/04/18 05:37:18;;;;;;;;;76.25;58.75;;;;;-147.17;100.00;-15917.19;5022974;28;50942;-57
2023/04/18 05:39:44;;;;;;;;;70.50;55.00;;;;;-147.17;100.00;-15917.19;5029127;28;51174;-56
2023/04/18 05:42:09;;;;;;;;;65.75;54.00;;;;;-147.17;100.00;-15917.19;5017457;28;51211;-55
2023/04/18 05:44:36;;;;;;;;;78.00;61.00;;;;;-147.17;100.00;-15917.19;5017178;28;51430;-57
2023/04/18 05:47:04;;;;;;;;;73.50;58.25;;;;;-147.17;100.00;-15917.19;5029099;28;51198;-57
2023/04/18 05:49:30;;;;;;;;;67.75;53.75;;;;;-147.17;100.00;-15917.19;5015938;28;51101;-57
2023/04/18 05:51:56;;;;;;;;;80.00;61.25;;;;;-147.17;100.00;-15917.19;4993413;28;51043;-57
2023/04/18 05:54:21;;;;;;;;;71.00;54.75;;;;;-147.17;100.00;-15917.19;5013406;28;51343;-57
2023/04/18 05:56:47;;;;;;;;;67.25;54.75;;;;;-147.17;100.00;-15917.19;5014293;28;51353;-57
2023/04/18 05:59:12;;;;;;;;;68.25;54.25;;;;;-147.17;100.00;-15917.19;5030793;28;51429;-58
2023/04/18 06:01:38;;;;;;;;;73.25;57.25;;;;;-147.17;100.00;-15917.19;5018109;28;51062;-61
2023/04/18 06:04:03;;;;;;;;;70.50;56.50;;;;;-147.17;100.00;-15917.19;5011490;28;50997;-56
2023/04/18 06:06:30;;;;;;;;;70.50;56.00;;;;;-147.17;100.00;-15917.19;5014475;28;51513;-57
2023/04/18 06:08:55;;;;;;;;;67.75;55.00;;;;;-147.17;100.00;-15917.19;5000186;28;54401;-57
2023/04/18 06:11:21;;;;;;;;;68.75;54.00;;;;;-147.17;100.00;-15917.19;5031400;28;51062;-57
2023/04/18 06:13:46;;;;;;;;;67.00;53.75;;;;;-147.17;100.00;-15917.19;5018788;28;51052;-58
2023/04/18 06:16:12;;;;;;;;;70.75;55.50;;;;;-147.17;100.00;-15917.19;5014164;28;51022;-58
2023/04/18 06:18:39;;;;;;;;;69.00;52.50;;;;;-147.17;100.00;-15917.19;5030226;28;51175;-57
2023/04/18 06:21:05;;;;;;;;;67.50;54.50;;;;;-147.17;100.00;-15917.19;5030874;28;51097;-57
2023/04/18 06:23:30;;;;;;;;;68.25;54.00;;;;;-147.17;100.00;-15917.19;5030385;28;51154;-57
2023/04/18 06:25:56;;;;;;;;;68.25;53.00;;;;;-147.17;100.00;-15917.19;5027418;28;51037;-57
2023/04/18 06:28:21;;;;;;;;;70.75;55.00;;;;;-147.17;100.00;-15917.19;5030791;28;51893;-56
2023/04/18 06:30:47;;;;;;;;;64.50;50.75;;;;;-147.17;100.00;-15917.19;5031175;28;50954;-58
2023/04/18 06:33:12;;;;;;;;;69.00;53.75;;;;;-147.17;100.00;-15917.19;5030470;28;51126;-58
2023/04/18 06:35:38;;;;;;;;;69.50;55.00;;;;;-147.17;100.00;-15917.19;5031451;28;50994;-57
2023/04/18 06:38:03;;;;;;;;;67.00;53.00;;;;;-147.17;100.00;-15917.19;5031518;28;52157;-57
2023/04/18 06:40:30;;;;;;;;;67.50;53.25;;;;;-147.17;100.00;-15917.19;5031335;28;50915;-57
2023/04/18 06:42:58;;;;;;;;;69.75;55.75;;;;;-147.17;100.00;-15917.19;5031477;28;51100;-56
2023/04/18 06:45:23;;;;;;;;;75.50;58.50;;;;;-147.17;100.00;-15917.19;5031322;28;51091;-59
2023/04/18 06:47:50;;;;;;;;;63.25;51.50;;;;;-147.17;100.00;-15917.19;5031661;28;51056;-55
2023/04/18 06:50:15;;;;;;;;;69.50;54.25;;;;;-147.17;100.00;-15917.19;5032046;28;51036;-59
2023/04/18 06:52:44;;;;;;;;;67.00;53.50;;;;;-147.17;100.00;-15917.19;5031783;28;51132;-56
2023/04/18 06:55:11;;;;;;;;;68.25;53.75;;;;;-147.17;100.00;-15917.19;5020803;28;50881;-57
2023/04/18 06:57:37;;;;;;;;;72.50;56.00;;;;;-147.17;100.00;-15917.19;5011694;28;53408;-56
2023/04/18 07:00:04;;;;;;;;;68.50;53.25;;;;;-147.17;100.00;-15917.19;5031838;28;51176;-57
2023/04/18 07:02:30;;;;;;;;;67.50;53.50;;;;;-147.17;100.00;-15917.19;5031688;28;51063;-57
2023/04/18 07:04:55;;;;;;;;;67.50;53.00;;;;;-147.17;100.00;-15917.19;5031875;28;50846;-57
2023/04/18 07:07:21;;;;;;;;;66.00;51.50;;;;;-147.17;100.00;-15917.19;5031464;28;51003;-56
2023/04/18 07:09:47;;;;;;;;;67.00;53.50;;;;;-147.17;100.00;-15917.19;5031412;28;51007;-57
2023/04/18 07:12:12;;;;;;;;;67.75;52.75;;;;;-147.17;100.00;-15917.19;5031662;28;51050;-57
2023/04/18 07:14:38;;;;;;;;;68.50;52.50;;;;;-147.17;100.00;-15917.19;5031815;28;50869;-57
2023/04/18 07:17:03;;;;;;;;;66.25;52.75;;;;;-147.17;100.00;-15917.19;5031182;28;52895;-55
2023/04/18 07:19:29;;;;;;;;;69.00;55.00;;;;;-147.17;100.00;-15917.19;5022456;28;50937;-56
2023/04/18 07:21:54;;;;;;;;;68.00;54.50;;;;;-147.17;100.00;-15917.19;5031170;28;51057;-57
2023/04/18 07:24:22;;;;;;;;;67.00;52.00;;;;;-147.17;100.00;-15917.19;5031177;28;51055;-58
2023/04/18 07:26:48;;;;;;;;;70.50;56.25;;;;;-147.17;100.00;-15917.19;5030860;28;51066;-56
2023/04/18 07:29:13;;;;;;;;;67.75;54.50;;;;;-147.17;100.00;-15917.19;5031211;28;51116;-57
2023/04/18 07:31:38;;;;;;;;;66.75;52.50;;;;;-147.17;100.00;-15917.19;5013461;28;51124;-57
2023/04/18 07:34:04;;;;;;;;;66.50;52.25;;;;;-147.17;100.00;-15917.19;5031257;28;51079;-58
2023/04/18 07:36:30;;;;;;;;;68.75;54.00;;;;;-147.17;100.00;-15917.19;5031061;28;52114;-59
2023/04/18 07:38:55;;;;;;;;;69.50;52.50;;;;;-147.17;100.00;-15917.19;5012895;28;51138;-57
2023/04/18 07:41:21;;;;;;;;;66.00;52.50;;;;;-147.17;100.00;-15917.19;5031392;28;51809;-58
2023/04/18 07:43:46;;;;;;;;;65.25;53.00;;;;;-147.17;100.00;-15917.19;4993715;28;51219;-58
2023/04/18 07:46:11;;;;;;;;;67.50;52.00;;;;;-147.17;100.00;-15917.19;5014242;28;57351;-55
2023/04/18 07:48:37;;;;;;;;;66.25;52.50;;;;;-147.17;100.00;-15917.19;4980619;28;50979;-57
2023/04/18 07:51:02;;;;;;;;;62.25;50.25;;;;;-147.17;100.00;-15917.19;5015007;28;51200;-58
2023/04/18 07:53:28;;;;;;;;;63.00;50.50;;;;;-147.17;100.00;-15917.19;5014665;28;51098;-56
2023/04/18 07:55:59;;;;;;;;;61.25;49.75;;;;;-147.17;100.00;-15917.19;5030772;28;61326;-57
2023/04/18 07:58:24;;;;;;;;;60.75;49.00;;;;;-147.17;100.00;-15915.72;5027751;28;51205;-56
2023/04/18 08:00:50;;;;;;;;;61.50;50.50;;;;;-147.17;100.00;-15915.72;5014477;28;51002;-57
2023/04/18 08:03:15;;;;;;;;;65.00;53.00;;;;;-147.17;100.00;-15420.25;5014912;28;50890;-57
2023/04/18 08:05:41;;;;;;;;;63.50;51.00;;;;;-147.17;100.00;-15668.00;5013871;28;52224;-58
2023/04/18 08:08:10;;;;;;;;;63.00;50.00;;;;;-147.17;100.00;-15420.25;5014459;28;51105;-56
2023/04/18 08:10:36;;;;;;;;;65.50;51.75;;;;;-147.17;100.00;-14924.75;5013514;28;51002;-57
2023/04/18 08:13:03;;;;;;;;;63.00;51.00;;;;;-147.17;100.00;-13933.50;5021263;28;51469;-57
2023/04/18 08:15:31;;;;;;;;;61.75;50.75;;;;;-147.17;100.00;-11454.25;5033332;28;51193;-56
2023/04/18 08:17:56;;;;;;;;;61.50;49.00;;;;;-147.17;100.00;-9717.81;5033720;28;51040;-59
2023/04/18 08:20:22;;;;;;;;;68.25;52.50;;;;;-147.17;100.00;-10214.00;5033243;28;51106;-57
2023/04/18 08:22:48;;;;;;;;;65.00;51.75;;;;;-147.17;100.00;-5994.25;5032013;28;51318;-54
2023/04/18 08:25:13;;;;;;;;;63.25;51.00;;;;;-147.17;100.00;-4255.34;5032780;28;51751;-57
2023/04/18 08:27:38;;;;;;;;;57.25;46.50;;;;;-147.17;100.00;-2267.06;5033800;28;50907;-58
2023/04/18 08:30:06;;;;;;;;;54.75;45.75;;;;;-147.17;100.00;-2764.22;5034111;28;50959;-57
2023/04/18 08:32:32;;;;;;;;;62.00;48.75;;;;;-147.17;100.00;-1023.88;5033922;28;51451;-55
2023/04/18 08:34:57;;;;;;;;;60.75;49.75;;;;;-147.17;100.00;-1272.53;5033876;28;52200;-55
2023/04/18 08:37:22;;;;;;;;;61.00;49.75;;;;;-147.17;100.00;1463.72;5014862;28;51234;-56
2023/04/18 08:39:48;;;;;;;;;64.50;51.00;;;;;-147.17;100.00;4700.00;5033132;28;51091;-56
2023/04/18 08:42:18;;;;;;;;;60.00;48.00;;;;;-147.17;100.00;5696.34;5033107;28;51216;-57
2023/04/18 08:44:47;;;;;;;;;59.25;47.50;;;;;-147.17;100.00;8188.25;5033479;28;52315;-62
2023/04/18 08:47:13;;;;;;;;;59.50;48.00;;;;;-147.17;100.00;9684.19;5033546;28;51165;-57
2023/04/18 08:49:39;;;;;;;;;57.00;46.25;;;;;-147.17;100.00;12178.69;5031038;28;51321;-57
2023/04/18 08:52:12;;;;;;;;;58.00;48.00;;;;;-147.17;100.00;13925.81;5013162;28;51288;-57
2023/04/18 08:54:41;;;;;;;;;57.25;45.75;;;;;-147.17;100.00;19921.84;5018796;28;52356;-60
2023/04/18 08:57:08;;;;;;;;;58.50;46.75;;;;;-147.17;100.00;18421.97;5022192;28;50953;-57
2023/04/18 08:59:34;;;;;;;;;58.00;46.75;;;;;-147.17;100.00;26154.09;5013161;28;50950;-58
2023/04/18 09:02:02;;;;;;;;;58.00;45.75;;;;;-147.17;100.00;22923.34;5013594;28;51126;-57
2023/04/18 09:04:37;;;;;;;;;57.75;47.50;;;;;-147.17;100.00;24423.00;5013012;28;52377;-57
2023/04/18 09:07:05;;;;;;;;;62.00;48.25;;;;;-147.17;100.00;25500.69;5013204;28;51156;-57
2023/04/18 09:09:41;;;;;;;;;54.00;44.25;;;;;-147.17;100.00;28005.38;5012384;28;51299;-57
2023/04/18 09:12:08;;;;;;;;;56.75;46.25;;;;;-147.17;100.00;27476.91;5012946;28;50970;-57
2023/04/18 09:14:41;;;;;;;;;53.75;44.00;;;;;-147.17;100.00;29266.13;4985612;28;51433;-57
2023/04/18 09:17:09;;;;;;;;;56.75;46.25;;;;;-147.17;100.00;31040.50;5026490;28;51109;-55
2023/04/18 09:19:35;;;;;;;;;55.50;45.75;;;;;-147.17;100.00;29888.84;5024285;28;51121;-57
2023/04/18 09:22:03;;;;;;;;;56.00;45.25;;;;;-147.17;100.00;31005.25;5032087;28;51429;-57
2023/04/18 09:24:30;;;;;;;;;57.75;45.50;;;;;-147.17;100.00;29796.78;5032146;28;52204;-55
2023/04/18 09:26:57;;;;;;;;;55.75;45.50;;;;;-147.17;100.00;31193.31;5031808;28;51129;-57
2023/04/18 09:29:40;;;;;;;;;66.75;55.00;;;;;-147.17;100.00;32090.63;5032542;28;51072;-58
2023/04/18 09:32:05;;;;;;;;;56.00;46.00;;;;;-147.17;100.00;31879.00;5032826;28;51252;-58
2023/04/18 09:34:32;;;;;;;;;55.00;43.25;;;;;-147.17;100.00;32850.97;5032078;28;51042;-55
2023/04/18 09:37:09;;;;;;;;;53.75;43.50;;;;;-147.17;100.00;33856.47;5013482;28;50918;-56
2023/04/18 09:39:37;;;;;;;;;51.25;42.75;;;;;-147.17;100.00;34830.88;5031794;28;51268;-58
2023/04/18 09:42:02;;;;;;;;;55.00;46.25;;;;;-147.17;100.00;34713.25;5031467;28;51022;-57
2023/04/18 09:44:28;;;;;;;;;53.75;44.75;;;;;-147.17;100.00;36344.94;5031194;28;52120;-56
2023/04/18 09:46:54;;;;;;;;;50.50;42.50;;;;;-147.17;100.00;36254.69;5031312;28;51124;-56
2023/04/18 09:49:19;;;;;;;;;53.25;43.75;;;;;-147.17;100.00;36413.59;5031989;28;51088;-57
2023/04/18 09:51:45;;;;;;;;;52.50;43.25;;;;;-147.17;100.00;36066.38;5031922;28;50989;-57
2023/04/18 09:54:15;;;;;;;;;55.75;44.75;;;;;-147.17;100.00;35301.50;5028478;28;51799;-57
2023/04/18 09:56:43;;;;;;;;;53.50;44.50;;;;;-147.17;100.00;35717.28;5018615;28;51026;-56
2023/04/18 09:59:10;;;;;;;;;53.00;44.00;;;;;-147.17;100.00;35368.19;5032075;28;51239;-56
2023/04/18 10:01:37;;;;;;;;;54.00;44.75;;;;;-147.17;100.00;35187.78;5032060;28;50907;-57
2023/04/18 10:04:07;;;;;;;;;53.75;44.00;;;;;-147.17;100.00;34078.00;5029955;28;51103;-56
2023/04/18 10:06:38;;;;;;;;;56.25;46.50;;;;;-147.17;100.00;33709.47;5031321;28;51200;-56
2023/04/18 10:09:04;;;;;;;;;54.75;45.25;;;;;-147.17;100.00;35703.53;5031866;28;50939;-57
2023/04/18 10:11:33;;;;;;;;;57.00;47.00;;;;;-147.17;100.00;38047.94;5032425;28;51086;-58
2023/04/18 10:14:03;;;;;;;;;58.00;47.75;;;;;-147.17;100.00;39268.75;5024643;28;53278;-56
2023/04/18 10:16:29;;;;;;;;;53.00;44.00;;;;;-147.17;100.00;40621.50;5031693;28;51113;-57
2023/04/18 10:18:55;;;;;;;;;50.50;43.00;;;;;-147.17;100.00;40109.03;5031952;28;51256;-57
2023/04/18 10:21:21;;;;;;;;;55.75;44.50;;;;;-147.17;100.00;39270.72;5032109;28;51303;-56
2023/04/18 10:23:47;;;;;;;;;52.25;43.50;;;;;-147.17;100.00;38895.78;5031100;28;51158;-56
2023/04/18 10:26:13;;;;;;;;;53.25;43.25;;;;;-147.17;100.00;40963.22;5031406;28;51198;-54
2023/04/18 10:28:56;;;;;;;;;56.50;46.00;;;;;-147.17;100.00;40965.19;5031344;28;51168;-56
2023/04/18 10:31:23;;;;;;;;;53.50;44.25;;;;;-147.17;100.00;41507.25;5031975;28;51074;-57
2023/04/18 10:33:59;;;;;;;;;48.75;41.50;;;;;-147.17;100.00;41110.50;5031032;28;51325;-55
2023/04/18 10:36:27;;;;;;;;;53.50;43.00;;;;;-147.17;100.00;40839.50;5013279;28;51116;-56
2023/04/18 10:38:54;;;;;;;;;52.00;43.25;;;;;-147.17;100.00;40101.16;5012636;28;51139;-56
2023/04/18 10:41:25;;;;;;;;;51.25;42.00;;;;;-147.17;100.00;39763.47;5031282;28;51141;-59
2023/04/18 10:46:51;;;;;;;;;50.25;41.50;;;;;-147.17;100.00;39794.88;5030724;28;51101;-56
2023/04/18 10:49:25;;;;;;;;;51.00;43.25;;;;;-147.17;100.00;40065.81;5016797;28;51218;-56